Latest Weather Observations for Point Fawcett

IDD60901

Issued at 4:01 pm CST Wednesday 28 January 2015 (issued every 10 minutes, with the page automatically refreshed every 10 minutes)

About weather observations | Map of Darwin area stations | Latest observations for Darwin area | Other Formats
Station Details ID: 200731 Name: POINT FAWCETT Lat: -11.76 Lon: 130.03 Height: 6.5 m
Data from the previous 72 hours. | See also: Recent months at Point Fawcett
Date/Time
CST
Tmp

°C
App
Tmp
°C
Dew
Point
°C
Rel
Hum
%
Delta-T

°C
Wind Press
QNH
hPa
Press
MSL
hPa
Rain
since
9 am
mm
Dir
 
Spd
km/h
Gust
km/h
Spd
kts
Gust
kts
28/04:00pm 29.4 32.6 25.8 81 2.6 W 20 26 11 14 1003.3 - -
28/03:30pm 30.5 34.2 25.8 76 3.3 WSW 17 22 9 12 1003.2 - -
28/03:00pm 31.1 35.6 26.4 76 3.4 W 15 20 8 11 1003.6 1003.5 -
28/02:30pm 32.1 37.2 27.3 76 3.5 W 15 22 8 12 1003.9 - -
28/02:00pm 31.5 36.0 27.0 77 3.2 W 17 22 9 12 1004.3 - -
28/01:30pm 31.1 35.2 26.4 76 3.4 W 17 22 9 12 1004.8 - -
28/01:00pm 31.2 35.4 26.5 76 3.4 W 17 20 9 11 1005.1 - -
28/12:30pm 30.9 35.3 26.2 76 3.4 W 15 20 8 11 1005.5 - -
28/12:00pm 30.5 34.5 25.6 75 3.5 W 15 19 8 10 1005.8 1005.7 -
28/11:30am 30.6 34.7 25.7 75 3.5 W 15 20 8 11 1006.0 - -
28/11:00am 30.9 35.4 26.4 77 3.2 W 15 19 8 10 1006.3 - -
28/10:30am 30.2 34.3 25.7 77 3.2 W 15 19 8 10 1006.6 - -
28/10:00am 30.3 34.9 26.0 78 3.1 W 13 17 7 9 1006.6 - -
28/09:30am 30.1 34.1 25.6 77 3.2 W 15 20 8 11 1006.2 - -
28/09:00am 29.8 33.3 25.5 78 3.0 W 17 24 9 13 1005.9 1005.8 -
28/08:30am 29.2 32.6 25.8 82 2.4 W 19 24 10 13 1005.7 - -
28/08:00am 28.7 32.4 25.7 84 2.1 W 17 20 9 11 1005.3 - -
28/07:30am 28.4 31.6 25.6 85 2.0 W 19 22 10 12 1005.0 - -
28/07:00am 28.1 31.6 25.5 86 1.8 W 17 20 9 11 1004.6 - -
28/06:30am 28.0 31.9 25.4 86 1.8 W 15 19 8 10 1004.3 - -
28/06:00am 28.0 31.7 25.2 85 2.0 W 15 19 8 10 1004.1 1004.0 -
28/05:30am 27.9 32.1 25.3 86 1.8 W 13 19 7 10 1003.9 - -
28/05:00am 27.7 31.7 25.1 86 1.8 W 13 15 7 8 1003.9 - -
28/04:30am 27.8 32.2 25.0 85 2.0 W 11 15 6 8 1003.9 - -
28/04:00am 28.0 31.6 25.0 84 2.1 W 15 19 8 10 1004.1 - -
28/03:30am 28.0 32.0 25.0 84 2.1 W 13 17 7 9 1004.3 - -
28/03:00am 28.2 32.3 25.2 84 2.1 WSW 13 17 7 9 1004.6 1004.5 -
28/02:30am 28.3 32.2 25.5 85 2.0 WSW 15 22 8 12 1005.1 - -
28/02:00am 28.3 31.2 25.1 83 2.2 WSW 19 26 10 14 1005.6 - -
28/01:30am 28.4 31.9 25.4 84 2.1 WSW 17 26 9 14 1006.0 - -
28/01:00am 28.3 31.7 25.3 84 2.1 WSW 17 26 9 14 1006.4 - -
28/12:30am 28.4 31.6 25.6 85 2.0 WSW 19 28 10 15 1006.8 - -
28/12:00am 28.2 31.2 25.2 84 2.1 WSW 19 28 10 15 1007.1 1007.0 -
 
Date/Time
CST
Tmp

°C
App
Tmp
°C
Dew
Point
°C
Rel
Hum
%
Delta-T

°C
Wind Press
QNH
hPa
Press
MSL
hPa
Rain
since
9 am
mm
Dir
 
Spd
km/h
Gust
km/h
Spd
kts
Gust
kts
27/11:30pm 28.1 31.9 25.9 88 1.6 WSW 17 22 9 12 1007.5 - -
27/11:00pm 27.7 32.3 25.9 90 1.3 W 13 15 7 8 1007.4 - -
27/10:30pm 27.6 32.0 25.6 89 1.4 W 13 17 7 9 1007.5 - -
27/10:00pm 27.5 30.9 25.3 88 1.5 W 17 20 9 11 1007.5 - -
27/09:30pm 27.4 31.9 25.2 88 1.5 WSW 11 15 6 8 1007.4 - -
27/09:00pm 27.2 31.6 25.0 88 1.5 W 11 17 6 9 1006.8 1006.7 -
27/08:30pm 27.1 31.0 24.9 88 1.5 W 13 20 7 11 1006.5 - -
27/08:00pm 26.5 29.5 24.0 86 1.7 W 15 20 8 11 1006.1 - -
27/07:30pm 26.3 28.1 24.3 89 1.4 W 22 28 12 15 1005.5 - -
27/07:00pm 25.5 29.1 24.3 93 0.8 WSW 13 20 7 11 1005.0 - -
27/06:30pm 24.1 27.3 23.1 94 0.7 S 11 17 6 9 1005.0 - -
27/06:00pm 24.1 27.7 23.1 94 0.7 SSE 9 15 5 8 1005.1 1005.0 -
27/05:30pm 23.8 26.4 22.6 93 0.8 SSE 13 19 7 10 1004.8 - -
27/05:00pm 23.7 25.8 22.5 93 0.8 S 15 30 8 16 1005.1 - -
27/04:30pm 24.1 26.4 22.7 92 0.9 SSE 15 24 8 13 1005.3 - -
27/04:00pm 25.2 27.8 22.7 86 1.7 SE 13 24 7 13 1005.3 - -
27/03:30pm 26.0 28.1 23.7 87 1.6 SSE 19 30 10 16 1005.3 - -
27/03:00pm 26.3 29.7 24.0 87 1.6 SSE 13 20 7 11 1005.6 1005.5 -
27/02:30pm 27.9 29.8 23.7 78 2.9 S 20 37 11 20 1006.2 - -
27/02:00pm 29.9 33.3 25.9 79 2.8 WSW 19 26 10 14 1005.9 - -
27/01:30pm 30.2 34.0 26.4 80 2.7 W 19 28 10 15 1006.2 - -
27/01:00pm 30.1 34.0 26.0 78 2.9 WSW 17 22 9 12 1006.6 - -
27/12:30pm 30.2 34.0 26.4 80 2.7 WSW 19 24 10 13 1006.7 - -
27/12:00pm 29.6 31.5 25.6 79 2.8 W 26 35 14 19 1007.6 1007.5 -
27/11:30am 30.5 33.2 26.2 78 3.1 W 24 33 13 18 1007.8 - -
27/11:00am 31.1 34.9 26.8 78 3.1 W 20 28 11 15 1008.2 - -
27/10:30am 30.0 33.1 25.7 78 3.0 W 20 26 11 14 1008.3 - -
27/10:00am 30.6 34.0 25.9 76 3.3 W 19 26 10 14 1008.3 - -
27/09:30am 30.2 33.2 26.1 79 2.9 W 22 28 12 15 1008.4 - -
27/09:00am 29.9 32.6 25.6 78 3.0 W 22 28 12 15 1008.4 1008.3 -
27/08:30am 28.9 32.3 25.9 84 2.1 W 19 26 10 14 1008.5 - -
27/08:00am 28.7 31.7 25.5 83 2.3 W 20 28 11 15 1008.2 - -
27/07:30am 28.4 31.3 25.4 84 2.1 W 20 26 11 14 1007.9 - -
27/07:00am 28.4 31.6 25.6 85 2.0 W 19 24 10 13 1007.5 - -
27/06:30am 28.3 31.4 25.7 86 1.8 W 20 28 11 15 1006.9 - -
27/06:00am 28.4 31.1 25.6 85 2.0 W 22 28 12 15 1006.3 1006.2 -
27/05:30am 28.2 30.3 25.4 85 2.0 W 24 30 13 16 1005.7 - -
27/05:00am 28.2 30.3 25.4 85 2.0 W 24 32 13 17 1005.7 - -
27/04:30am 28.3 30.4 25.9 87 1.7 W 26 35 14 19 1005.7 - -
27/04:00am 27.5 29.8 25.1 87 1.7 W 22 28 12 15 1005.7 - -
27/03:30am 26.6 27.7 24.3 87 1.6 W 26 37 14 20 1005.9 - -
27/03:00am 26.3 26.1 24.3 89 1.4 WNW 33 46 18 25 1006.0 1005.9 -
27/02:55am 26.2 26.8 24.1 88 1.4 W 28 46 15 25 1006.1 - -
27/02:30am 28.3 31.2 25.9 87 1.7 WNW 22 26 12 14 1006.3 - -
27/02:00am 28.2 31.2 25.6 86 1.8 W 20 24 11 13 1006.9 - -
27/01:30am 28.0 31.0 25.2 85 2.0 W 19 24 10 13 1007.2 - -
27/01:00am 27.9 30.4 24.5 82 2.4 W 19 24 10 13 1007.4 - -
27/12:30am 28.1 31.5 24.7 82 2.4 WSW 15 22 8 12 1008.0 - -
27/12:00am 27.8 30.8 24.0 80 2.6 WSW 15 20 8 11 1008.4 1008.3 -
 
Date/Time
CST
Tmp

°C
App
Tmp
°C
Dew
Point
°C
Rel
Hum
%
Delta-T

°C
Wind Press
QNH
hPa
Press
MSL
hPa
Rain
since
9 am
mm
Dir
 
Spd
km/h
Gust
km/h
Spd
kts
Gust
kts
26/11:30pm 27.5 30.7 23.7 80 2.6 WSW 13 19 7 10 1008.8 - -
26/11:00pm 27.0 30.6 23.7 82 2.3 SW 11 17 6 9 1008.7 - -
26/10:30pm 26.7 30.3 23.8 84 2.0 SSW 11 17 6 9 1008.6 - -
26/10:00pm 26.6 29.4 23.7 84 2.0 SW 15 20 8 11 1008.6 - -
26/09:30pm 26.4 29.7 23.9 86 1.7 SW 13 20 7 11 1008.4 - -
26/09:00pm 26.2 29.3 23.5 85 1.8 SW 13 19 7 10 1007.9 1007.8 -
26/08:30pm 26.7 29.2 24.7 89 1.4 WSW 20 28 11 15 1007.7 - -
26/08:00pm 27.3 31.5 25.3 89 1.4 W 13 20 7 11 1007.3 - -
26/07:30pm 27.2 30.6 25.2 89 1.4 W 17 20 9 11 1006.9 - -
26/07:00pm 26.7 30.9 24.7 89 1.4 W 11 15 6 8 1006.5 - -
26/06:30pm 26.6 31.0 24.4 88 1.5 SSW 9 15 5 8 1006.6 - -
26/06:00pm 27.1 30.6 24.2 84 2.0 S 13 24 7 13 1006.6 1006.5 -
26/05:30pm 27.9 30.2 24.1 80 2.6 SSW 19 30 10 16 1006.6 - -
26/05:00pm 29.6 31.5 25.6 79 2.8 W 26 35 14 19 1006.4 - -
26/04:30pm 29.5 31.6 25.9 81 2.6 W 26 32 14 17 1006.3 - -
26/04:00pm 29.6 32.1 26.0 81 2.6 W 24 32 13 17 1006.1 - -
26/03:30pm 30.1 33.3 26.5 81 2.6 W 22 30 12 16 1006.3 - -
26/03:00pm 30.1 33.4 26.0 78 2.9 W 20 28 11 15 1006.6 1006.5 -
26/02:30pm 28.7 28.9 24.7 79 2.8 W 32 43 17 23 1007.1 - -
26/02:00pm 29.2 30.8 25.8 82 2.4 W 28 39 15 21 1007.6 - -
26/01:30pm 31.0 33.9 26.5 77 3.2 W 24 30 13 16 1007.8 - -
26/01:00pm 31.6 34.5 26.6 75 3.6 W 24 32 13 17 1008.2 - -
26/12:30pm 30.9 33.8 25.9 74 3.6 W 22 30 12 16 1008.6 - -
26/12:00pm 30.4 34.1 26.3 79 2.9 WNW 19 24 10 13 1008.9 1008.8 -
26/11:30am 31.2 35.1 26.9 78 3.1 WNW 20 24 11 13 1009.1 - -
26/11:00am 30.6 34.6 27.0 81 2.6 W 20 24 11 13 1009.3 - -
26/10:30am 30.1 33.6 26.3 80 2.7 W 20 24 11 13 1009.3 - -
26/10:00am 30.8 34.8 26.7 79 2.9 W 19 24 10 13 1009.4 - -
26/09:30am 30.0 34.1 26.4 81 2.6 W 17 22 9 12 1009.1 - -
26/09:00am 30.0 34.3 26.6 82 2.4 W 17 20 9 11 1009.1 1009.0 -
26/08:30am 29.3 32.5 25.9 82 2.4 W 20 26 11 14 1009.1 - -
26/08:00am 29.0 31.8 25.8 83 2.3 W 22 28 12 15 1009.3 - -
26/07:30am 28.7 31.9 25.9 85 2.0 W 20 28 11 15 1009.1 - -
26/07:00am 28.6 31.9 26.0 86 1.8 WNW 20 26 11 14 1008.8 - -
26/06:30am 28.6 31.4 25.8 85 2.0 WNW 22 26 12 14 1008.7 - -
26/06:00am 28.5 31.2 25.7 85 2.0 WNW 22 26 12 14 1008.6 1008.5 -
26/05:30am 28.4 31.2 25.8 86 1.8 WNW 22 28 12 15 1008.3 - -
26/05:00am 28.5 31.6 25.7 85 2.0 WNW 20 24 11 13 1007.9 - -
26/04:30am 28.4 31.8 25.8 86 1.8 WNW 19 24 10 13 1007.5 - -
26/04:00am 28.4 31.6 25.6 85 2.0 WNW 19 20 10 11 1007.4 - -
26/03:30am 28.3 31.8 25.5 85 2.0 W 17 20 9 11 1007.3 - -
26/03:00am 28.4 31.4 25.6 85 2.0 W 20 26 11 14 1007.4 1007.3 -
26/02:30am 28.5 31.9 25.9 86 1.8 W 19 22 10 12 1007.6 - -
26/02:00am 28.4 31.8 25.8 86 1.8 W 19 24 10 13 1008.1 - -
26/01:30am 28.6 32.1 26.0 86 1.8 W 19 24 10 13 1008.7 - -
26/01:00am 28.6 32.1 26.0 86 1.8 W 19 24 10 13 1009.0 - -
26/12:30am 28.6 32.3 25.8 85 2.0 W 17 24 9 13 1009.1 - -
26/12:00am 28.6 32.0 25.8 85 2.0 W 19 24 10 13 1009.4 1009.3 -
 
Date/Time
CST
Tmp

°C
App
Tmp
°C
Dew
Point
°C
Rel
Hum
%
Delta-T

°C
Wind Press
QNH
hPa
Press
MSL
hPa
Rain
since
9 am
mm
Dir
 
Spd
km/h
Gust
km/h
Spd
kts
Gust
kts
25/11:30pm 28.8 32.7 26.0 85 2.0 W 17 22 9 12 1009.5 - -
25/11:00pm 28.7 32.5 25.9 85 2.0 W 17 24 9 13 1009.3 - -
25/10:30pm 28.8 32.7 26.0 85 2.0 W 17 24 9 13 1009.1 - -
25/10:00pm 28.8 32.0 25.6 83 2.3 WSW 19 26 10 14 1009.1 - -
25/09:30pm 28.4 31.8 25.2 83 2.2 W 17 24 9 13 1009.1 - -
25/09:00pm 28.7 32.6 25.5 83 2.3 WSW 15 24 8 13 1008.6 1008.5 -
25/08:30pm 27.6 30.5 23.8 80 2.6 SSW 15 33 8 18 1008.7 - -
25/08:00pm 29.2 32.2 26.2 84 2.1 W 22 28 12 15 1008.2 - -
25/07:30pm 29.1 32.5 26.1 84 2.1 W 20 26 11 14 1008.0 - -
25/07:00pm 29.2 32.5 26.0 83 2.3 W 20 26 11 14 1007.7 - -
25/06:30pm 29.8 33.2 26.2 81 2.6 W 20 28 11 15 1007.5 - -
25/06:00pm 30.3 33.9 26.5 80 2.7 W 20 26 11 14 1007.2 1007.1 -
25/05:30pm 30.1 33.0 26.0 78 2.9 W 22 28 12 15 1007.0 - -
25/05:00pm 30.3 33.0 26.2 79 2.9 W 24 33 13 18 1007.0 - -
25/04:30pm 30.4 33.4 26.1 78 3.1 W 22 30 12 16 1006.9 - -

Latest Capital City Observations: Canberra | Sydney | Melbourne | Brisbane | Adelaide | Perth | Hobart | Darwin

Other Formats:

Comma delimited format used in spreadsheet applications
http://www.bom.gov.au/fwo/IDD60901/IDD60901.94122.axf

JavaScript Object Notation format (JSON) in row-major order
http://www.bom.gov.au/fwo/IDD60901/IDD60901.94122.json